K0PFX-8 Weather Reports


Display with metric or nautical units.
time (UTC)temp
F
wind
direction
speed
MPH
gust
MPH
rain 1hr
in
rain 24hr
in
rain mn
in
humidity
%
barometer
mb
20170821083104 78 166 0.0 0.0 0.00 0.00 0.00 91 1017.6
20170821081602 78 281 3.0 0.0 0.00 0.00 0.00 91 1017.4
20170821080103 78 190 0.0 5.0 0.00 0.00 0.00 91 1017.3
20170821074601 78 120 1.0 2.0 0.00 0.00 0.00 91 1017.4
20170821073103 78 170 1.0 0.0 0.00 0.00 0.00 91 1017.4
20170821071555 78 177 3.0 2.0 0.00 0.00 0.00 91 1017.4
20170821070057 78 148 2.0 0.0 0.00 0.00 0.00 91 1017.5
20170821064550 78 203 1.0 0.0 0.00 0.00 0.00 91 1017.7
20170821063052 77 165 0.0 0.0 0.00 0.00 0.00 90 1017.7
20170821061547 77 253 0.0 0.0 0.00 0.00 0.00 90 1017.7
20170821060048 78 253 0.0 0.0 0.00 0.00 0.00 89 1017.7
20170821054544 78 253 0.0 0.0 0.00 0.00 0.00 89 1017.8
20170821053044 78 253 0.0 0.0 0.00 0.00 0.00 87 1017.9
20170821051542 78 253 0.0 0.0 0.00 0.00 0.00 86 1017.8
20170821050043 79 253 0.0 0.0 0.00 0.00 0.00 85 1017.6
20170821044537 79 253 0.0 0.0 0.00 0.00 0.00 84 1017.5
20170821043038 79 253 0.0 0.0 0.00 0.00 0.00 82 1017.2
20170821041536 80 352 0.0 0.0 0.00 0.00 0.00 81 1017.2
20170821040037 80 352 0.0 0.0 0.00 0.00 0.00 78 1017.1
20170821034533 81 352 0.0 0.0 0.00 0.00 0.00 76 1017.0
20170821033035 81 352 0.0 0.0 0.00 0.00 0.00 75 1017.2
20170821031532 82 352 0.0 0.0 0.00 0.00 0.00 72 1016.9
20170821030034 83 352 0.0 0.0 0.00 0.00 0.00 68 1016.8
20170821024526 83 8 4.0 3.0 0.00 0.00 0.00 67 1016.8
20170821023028 84 245 0.0 0.0 0.00 0.00 0.00 67 1016.4
20170821021522 85 183 6.0 6.0 0.00 0.00 0.00 65 1016.0
20170821020101 85 158 0.0 0.0 0.00 0.00 0.00 64 1015.8
20170821020024 85 158 0.0 0.0 0.00 0.00 0.00 64 1015.8
20170821014520 86 291 0.0 0.0 0.00 0.00 0.00 63 1015.3
20170821013021 86 280 1.0 0.0 0.00 0.00 0.00 60 1014.4
20170821011552 87 49 2.0 0.0 0.00 0.00 0.00 58 1014.1
20170821011520 87 49 2.0 0.0 0.00 0.00 0.00 58 1014.1
20170821010122 87 204 4.0 5.0 0.00 0.00 0.00 58 1014.3
20170821010021 87 204 4.0 5.0 0.00 0.00 0.00 58 1014.3
20170821004514 87 293 2.0 0.0 0.00 0.00 0.00 57 1014.7
20170821003016 87 267 4.0 5.0 0.00 0.00 0.00 56 1015.0
20170821001505 87 266 6.0 6.0 0.00 0.00 0.00 55 1015.3
20170820235932 88 191 2.0 0.0 0.00 0.00 0.00 55 1015.0
20170820234429 88 219 0.0 0.0 0.00 0.00 0.00 56 1015.2
20170820232931 89 200 1.0 1.0 0.00 0.00 0.00 55 1015.3
20170820231426 89 263 5.0 5.0 0.00 0.00 0.00 52 1015.3
20170820225928 89 174 0.0 0.0 0.00 0.00 0.00 51 1015.3
20170820224413 91 210 3.0 2.0 0.00 0.00 0.00 48 1015.3
20170820222914 91 252 6.0 7.0 0.00 0.00 0.00 48 1015.3
20170820221409 91 277 7.0 7.0 0.00 0.00 0.00 49 1015.8
20170820215910 92 173 7.0 5.0 0.00 0.00 0.00 47 1015.6
20170820214406 92 180 2.0 4.0 0.00 0.00 0.00 46 1015.3
20170820212908 92 198 8.0 8.0 0.00 0.00 0.00 44 1015.3
20170820211401 92 214 7.0 3.0 0.00 0.00 0.00 44 1015.2
20170820205903 91 150 2.0 3.0 0.00 0.00 0.00 43 1015.1
20170820204358 91 301 1.0 2.0 0.00 0.00 0.00 44 1015.0
20170820202900 90 186 6.0 5.0 0.00 0.00 0.00 43 1014.7
20170820201358 90 65 1.0 4.0 0.00 0.00 0.00 43 1014.6
20170820195900 89 174 4.0 5.0 0.00 0.00 0.00 44 1014.6
20170820194357 89 94 3.0 6.0 0.00 0.00 0.00 44 1014.9
20170820192935 88 79 5.0 1.0 0.00 0.00 0.00 44 1015.0
20170820192858 88 79 5.0 1.0 0.00 0.00 0.00 44 1015.0
20170820191354 88 52 0.0 3.0 0.00 0.00 0.00 43 1015.2
20170820185855 87 70 2.0 0.0 0.00 0.00 0.00 46 1015.5
20170820184354 86 141 4.0 2.0 0.00 0.00 0.00 48 1015.6
20170820182933 85 149 4.0 0.0 0.00 0.00 0.00 47 1016.0
20170820182856 85 149 4.0 0.0 0.00 0.00 0.00 47 1016.0
20170820175854 85 107 2.0 0.0 0.00 0.00 0.00 48 1016.9
20170820174349 85 65 2.0 4.0 0.00 0.00 0.00 48 1017.2
20170820172850 84 11 7.0 8.0 0.00 0.00 0.00 51 1017.1
20170820171346 84 143 4.0 3.0 0.00 0.00 0.00 53 1017.0
20170820165929 84 41 2.0 0.0 0.00 0.00 0.00 53 1017.0
20170820165846 84 41 2.0 0.0 0.00 0.00 0.00 53 1017.0
20170820164342 84 273 4.0 5.0 0.00 0.00 0.00 59 1017.2
20170820162926 83 297 5.0 5.0 0.00 0.00 0.00 62 1017.5
20170820162842 83 297 5.0 5.0 0.00 0.00 0.00 62 1017.5
20170820161433 82 326 4.0 5.0 0.00 0.00 0.00 63 1017.8
20170820161340 82 326 4.0 5.0 0.00 0.00 0.00 63 1017.8
20170820155928 82 297 4.0 5.0 0.00 0.00 0.00 67 1017.7
20170820155842 82 297 4.0 5.0 0.00 0.00 0.00 67 1017.7
20170820154338 82 285 6.0 7.0 0.00 0.00 0.00 76 1017.6
20170820152927 81 304 10.0 5.0 0.00 0.00 0.00 78 1017.4
20170820152838 81 304 10.0 5.0 0.00 0.00 0.00 78 1017.4
20170820151332 81 248 9.0 12.0 0.00 0.00 0.00 81 1017.1
20170820145833 81 264 3.0 4.0 0.00 0.00 0.00 79 1016.3
20170820144328 81 204 0.0 0.0 0.00 0.00 0.00 81 1016.3
20170820142828 81 253 3.0 3.0 0.00 0.00 0.00 81 1016.5
20170820141320 80 150 0.0 0.0 0.00 0.00 0.00 83 1016.5
20170820135824 79 174 2.0 0.0 0.00 0.00 0.00 83 1016.8
20170820134312 78 231 4.0 3.0 0.00 0.00 0.00 85 1016.6
20170820131305 76 245 3.0 4.0 0.00 0.00 0.00 91 1016.5
20170820125905 75 219 5.0 3.0 0.00 0.00 0.00 95 1016.3
20170820125806 75 219 5.0 3.0 0.00 0.00 0.00 95 1016.3
20170820124341 73 335 0.0 0.0 0.00 0.00 0.00 99 1016.0
20170820124301 73 335 0.0 0.0 0.00 0.00 0.00 99 1016.0
20170820122840 72 335 0.0 0.0 0.00 0.00 0.00 99 1015.8
20170820122803 72 335 0.0 0.0 0.00 0.00 0.00 99 1015.8
20170820121256 72 335 0.0 0.0 0.00 0.00 0.00 99 1015.5
20170820115758 72 335 0.0 0.0 0.00 0.00 0.00 98 1015.3
20170820114250 71 335 0.0 0.0 0.00 0.00 0.00 98 1015.3
20170820112749 71 335 0.0 0.0 0.00 0.00 0.00 98 1015.2
20170820111245 71 335 0.0 0.0 0.00 0.00 0.00 97 1015.1
20170820105744 71 335 0.0 0.0 0.00 0.00 0.00 97 1015.2
20170820104240 71 335 0.0 0.0 0.00 0.00 0.00 97 1015.0
20170820102741 72 335 0.0 0.0 0.00 0.00 0.00 96 1014.8
20170820101312 72 335 0.0 0.0 0.00 0.00 0.00 96 1015.0
20170820101240 72 335 0.0 0.0 0.00 0.00 0.00 96 1015.0
20170820095741 72 335 0.0 0.0 0.00 0.00 0.00 96 1014.9
20170820094237 72 335 0.0 0.0 0.00 0.00 0.00 95 1014.7
20170820092735 72 335 0.0 0.0 0.00 0.00 0.00 95 1014.5
20170820091225 72 335 0.0 0.0 0.00 0.00 0.00 95 1014.3
20170820085725 72 335 0.0 0.0 0.00 0.00 0.00 95 1014.1
20170820084216 72 335 0.0 0.0 0.00 0.00 0.00 94 1013.8